Ncc Rabigh — HZQA — position and weather

sailwx.info

Track history (hours):
 
Tides and Currents Weather Stations Pressure Air Temp Water Temp Dewpoint Dewpoint Depression Visibility Wind Speed Wind Dir Waves Ship Positions

Ncc Rabigh

Last reported at 2016-Sep-24 18:20 UTC. Time now 2016-Sep-28 00:05 UTC.
Position N 01°59' E 102°14'.

Length 183 m; draft 10.5 m.

Type: Tanker. MMSI: 403575000.

Date/timePositionNaut miles runAvg speedWind from/ knotsBaromVisibWave heightAir tempDewpointWater temp
2016-Sep-24 18:20N 01°59' E 102°14'911.6
2016-Sep-24 17:34N 01°54' E 102°22'1212.3
2016-Sep-24 16:33N 01°49' E 102°33'2812.4
2016-Sep-24 14:18N 01°38' E 102°59'2412.7
2016-Sep-24 12:24N 01°22' E 103°17'2212.0
2016-Sep-24 10:33N 01°12' E 103°36'5 4.6
2016-Sep-24 09:32N 01°12' E 103°41'2 0.1
2016-Sep-23 06:30N 01°14' E 103°42'  
2016-Sep-15 04:33N 29°44' E 122°19'1211.8
2016-Sep-15 03:33N 29°53' E 122°10'  
Track history (hours):
 
Tides and Currents Weather Stations Pressure Air Temp Water Temp Dewpoint Dewpoint Depression Visibility Wind Speed Wind Dir Waves Ship Positions

Ncc Rabigh

Last reported at 2016-Sep-24 18:20 UTC. Time now 2016-Sep-28 00:05 UTC.
Position N 01°59' E 102°14'.

Length 183 m; draft 10.5 m.

Type: Tanker. MMSI: 403575000.

Date/timePositionNaut miles runAvg speedWind from/ knotsBaromVisibWave heightAir tempDewpointWater temp
2016-Sep-24 18:20N 01°59' E 102°14'911.6
2016-Sep-24 17:34N 01°54' E 102°22'1212.3
2016-Sep-24 16:33N 01°49' E 102°33'2812.4
2016-Sep-24 14:18N 01°38' E 102°59'2412.7
2016-Sep-24 12:24N 01°22' E 103°17'2212.0
2016-Sep-24 10:33N 01°12' E 103°36'5 4.6
2016-Sep-24 09:32N 01°12' E 103°41'2 0.1
2016-Sep-23 06:30N 01°14' E 103°42'  
2016-Sep-15 04:33N 29°44' E 122°19'1211.8
2016-Sep-15 03:33N 29°53' E 122°10'  

Dump ship's entire track history